Malone, FL

10:31 AM CST on February 10, 2016 (GMT -0600)
Malone School WeatherSTEM | | Change Station
CLOSE
Current Station
Personal Weather Station
Location: Malone, FL
Elevation: 157 ft
Nearby Weather Stations
Active Advisory: Freeze Watch

Elev 157 ft 30.95 °N, 85.17 °W | Updated 8 minutes ago

Clear
Clear
38.1 °F
Feels Like 34 °F
N
6.0
Wind Variable Wind from West
Gusts 13.0 mph

Today
High -- | Low -- °F
--% Chance of Precip.
Yesterday
High -- | Low -- °F
Precip. -- in
Pressure 30.29 in
Visibility 10.0 miles
Clouds Clear
Windchill 34 °F
Dew Point 16 °F
Humidity 41%
Rainfall 0.00 in
Snow Depth Not available.
6:26 AM 5:23 PM
Waxing Crescent, 6% visible
METAR KMAI 101553Z AUTO 32010KT 10SM CLR 04/M11 A3029 RMK AO1 SLP256 T00391106 $
Pressure 30.29 in
Visibility 10.0 miles
Clouds Clear
Windchill 34 °F
Dew Point 16 °F
Humidity 41%
Rainfall 0.00 in
Snow Depth Not available.
6:26 AM 5:23 PM
Waxing Crescent, 6% visible
METAR KMAI 101553Z AUTO 32010KT 10SM CLR 04/M11 A3029 RMK AO1 SLP256 T00391106 $

10-Day Weather Forecast

Almanac

Astronomy

Feb. 10, 2016 Rise Set
Actual Time
Civil Twilight
Nautical Twilight
Astronomical Twilight
Moon
Length of Visible Light
Length of Day
Tomorrow will be .
, % of the Moon is Illuminated

Today's Extremes

State Highs State Lows

Community

WunderPhotos

Upload Photos

1,891,881 photos uploaded!

WunderBlog® & News

Nearby

Air Quality

  Air Quality AQ Index Pollutant
Not available.

Snow Depth

Station Depth Elevation

Earthquake Activity

City Distance Mag. Time & Date
Minimum magnitude displayed is 2.5.

Coastal Water Temperatures

Place Temperature

Stations

Nearby Weather Stations

Station Location Temp. Windchill Dew Point Humidity Wind Precip. Elev Updated Type
                   

Watches & Warnings

Freeze Watch
Issued: 8:20 AM CST Feb. 10, 2016 – National Weather Service

... Freeze watch remains in effect from late tonight through
Thursday morning...

* min temperatures Thursday morning... 25 to 30 degrees.

Precautionary/preparedness actions...

A freeze watch means sub-freezing temperatures are possible.
These conditions could kill crops and other sensitive vegetation.